Panorama, Brazil
Current Conditions -  °F | °C
As of 12:00 AM on Saturday 29 Nov 2014 (Local Time) from SBDN Reporting Station
Scattered Clouds Scattered Clouds  
Wind Chill: 77°   Ceiling: Unl
Heat Index: 79°   Visibility: 6mi
Dew Point: 63°   Wind: 14mph
Humidity: 61%   Direction: 120°ESE
Pressure: 29.94"   Gusts: NA
Location:  21.36°S, 51.86°W
Report Text: SBDN 290200Z 12012KT 9999 SCT040 25/17 Q1014
Loading
Personal Weather Stations






























Interactive Weather Map New forecast layout! Learn more

10-Day Weather Forecast

Advertisements
Track Severe Weather on mobile